sensor_id;sensor_type;location;lat;lon;timestamp;pressure;altitude;pressure_sealevel;temperature;humidity
3796;BME280;1913;50.660;7.834;2023-02-03T00:02:14;98095.75;;;5.98;100.00
3796;BME280;1913;50.660;7.834;2023-02-03T00:04:40;98086.34;;;6.06;100.00
3796;BME280;1913;50.660;7.834;2023-02-03T00:07:05;98085.16;;;6.00;100.00
3796;BME280;1913;50.660;7.834;2023-02-03T00:09:31;98083.22;;;6.02;100.00
3796;BME280;1913;50.660;7.834;2023-02-03T00:11:56;98068.59;;;6.09;100.00
3796;BME280;1913;50.660;7.834;2023-02-03T00:14:21;98077.72;;;6.05;100.00
3796;BME280;1913;50.660;7.834;2023-02-03T00:16:47;98079.34;;;6.06;100.00
3796;BME280;1913;50.660;7.834;2023-02-03T00:19:12;98072.84;;;6.10;100.00
3796;BME280;1913;50.660;7.834;2023-02-03T00:21:38;98047.72;;;6.09;100.00
3796;BME280;1913;50.660;7.834;2023-02-03T00:24:03;98043.97;;;6.12;100.00
3796;BME280;1913;50.660;7.834;2023-02-03T00:26:29;98025.19;;;6.08;100.00
3796;BME280;1913;50.660;7.834;2023-02-03T00:28:54;98026.78;;;6.01;100.00
3796;BME280;1913;50.660;7.834;2023-02-03T00:31:22;98033.19;;;6.07;100.00
3796;BME280;1913;50.660;7.834;2023-02-03T00:33:47;98035.44;;;6.02;100.00
3796;BME280;1913;50.660;7.834;2023-02-03T00:36:13;98018.22;;;6.09;100.00
3796;BME280;1913;50.660;7.834;2023-02-03T00:38:39;98021.63;;;6.09;100.00
3796;BME280;1913;50.660;7.834;2023-02-03T00:41:05;98018.03;;;6.10;100.00
3796;BME280;1913;50.660;7.834;2023-02-03T00:43:30;98018.34;;;6.07;100.00
3796;BME280;1913;50.660;7.834;2023-02-03T00:45:56;98004.19;;;6.10;100.00
3796;BME280;1913;50.660;7.834;2023-02-03T00:48:21;97996.81;;;6.05;100.00
3796;BME280;1913;50.660;7.834;2023-02-03T00:50:47;98005.31;;;6.07;100.00
3796;BME280;1913;50.660;7.834;2023-02-03T00:53:13;97995.81;;;5.98;100.00
3796;BME280;1913;50.660;7.834;2023-02-03T00:55:38;98002.84;;;6.06;100.00
3796;BME280;1913;50.660;7.834;2023-02-03T00:58:03;98002.34;;;6.02;100.00
3796;BME280;1913;50.660;7.834;2023-02-03T01:00:29;97998.41;;;5.98;100.00
3796;BME280;1913;50.660;7.834;2023-02-03T01:02:54;97997.25;;;6.00;100.00
3796;BME280;1913;50.660;7.834;2023-02-03T01:05:19;97991.41;;;5.98;100.00
3796;BME280;1913;50.660;7.834;2023-02-03T01:07:45;97999.22;;;5.98;100.00
3796;BME280;1913;50.660;7.834;2023-02-03T01:10:10;97998.25;;;5.99;100.00
3796;BME280;1913;50.660;7.834;2023-02-03T01:12:36;97992.00;;;5.92;100.00
3796;BME280;1913;50.660;7.834;2023-02-03T01:15:02;97998.06;;;6.01;100.00
3796;BME280;1913;50.660;7.834;2023-02-03T01:17:27;97989.22;;;5.94;100.00
3796;BME280;1913;50.660;7.834;2023-02-03T01:19:53;97989.53;;;5.91;100.00
3796;BME280;1913;50.660;7.834;2023-02-03T01:22:18;97995.84;;;5.88;100.00
3796;BME280;1913;50.660;7.834;2023-02-03T01:24:44;97993.63;;;5.93;100.00
3796;BME280;1913;50.660;7.834;2023-02-03T01:27:09;98005.84;;;5.93;100.00
3796;BME280;1913;50.660;7.834;2023-02-03T01:29:35;97998.31;;;5.90;100.00
3796;BME280;1913;50.660;7.834;2023-02-03T01:32:01;98000.63;;;5.93;100.00
3796;BME280;1913;50.660;7.834;2023-02-03T01:34:26;97989.97;;;5.86;100.00
3796;BME280;1913;50.660;7.834;2023-02-03T01:36:52;97995.81;;;5.98;100.00
3796;BME280;1913;50.660;7.834;2023-02-03T01:39:17;97987.28;;;5.96;100.00
3796;BME280;1913;50.660;7.834;2023-02-03T01:41:43;97999.22;;;5.98;100.00
3796;BME280;1913;50.660;7.834;2023-02-03T01:45:09;97990.59;;;5.98;100.00
3796;BME280;1913;50.660;7.834;2023-02-03T01:50:02;98010.25;;;5.92;100.00
3796;BME280;1913;50.660;7.834;2023-02-03T01:52:31;98002.66;;;5.99;100.00
3796;BME280;1913;50.660;7.834;2023-02-03T01:54:59;98005.91;;;6.01;100.00
3796;BME280;1913;50.660;7.834;2023-02-03T01:57:34;98006.28;;;6.06;100.00
3796;BME280;1913;50.660;7.834;2023-02-03T02:00:05;98011.13;;;6.01;100.00
3796;BME280;1913;50.660;7.834;2023-02-03T02:02:31;98020.13;;;6.07;100.00
3796;BME280;1913;50.660;7.834;2023-02-03T02:07:33;98015.44;;;6.10;100.00
3796;BME280;1913;50.660;7.834;2023-02-03T02:10:00;98005.91;;;6.01;100.00
3796;BME280;1913;50.660;7.834;2023-02-03T02:12:25;98006.88;;;6.00;100.00
3796;BME280;1913;50.660;7.834;2023-02-03T02:14:51;98004.94;;;6.02;100.00
3796;BME280;1913;50.660;7.834;2023-02-03T02:17:58;98014.75;;;6.08;100.00
3796;BME280;1913;50.660;7.834;2023-02-03T02:20:37;98024.34;;;5.99;100.00
3796;BME280;1913;50.660;7.834;2023-02-03T02:28:47;98022.53;;;6.00;100.00
3796;BME280;1913;50.660;7.834;2023-02-03T02:37:00;97998.44;;;6.06;100.00
3796;BME280;1913;50.660;7.834;2023-02-03T02:45:14;97999.25;;;6.07;100.00
3796;BME280;1913;50.660;7.834;2023-02-03T02:47:40;98004.31;;;6.08;100.00
3796;BME280;1913;50.660;7.834;2023-02-03T02:50:12;98003.66;;;6.06;100.00
3796;BME280;1913;50.660;7.834;2023-02-03T02:52:41;97999.47;;;6.13;100.00
3796;BME280;1913;50.660;7.834;2023-02-03T02:55:27;97988.53;;;6.10;100.00
3796;BME280;1913;50.660;7.834;2023-02-03T02:57:57;97988.53;;;6.10;100.00
3796;BME280;1913;50.660;7.834;2023-02-03T03:00:29;97988.22;;;6.13;100.00
3796;BME280;1913;50.660;7.834;2023-02-03T03:02:55;97984.47;;;6.15;100.00
3796;BME280;1913;50.660;7.834;2023-02-03T03:05:22;97981.34;;;6.12;100.00
3796;BME280;1913;50.660;7.834;2023-02-03T03:07:55;97982.03;;;6.14;100.00
3796;BME280;1913;50.660;7.834;2023-02-03T03:10:24;97980.53;;;6.11;100.00
3796;BME280;1913;50.660;7.834;2023-02-03T03:12:57;97977.31;;;6.17;100.00
3796;BME280;1913;50.660;7.834;2023-02-03T03:15:26;97972.25;;;6.16;100.00
3796;BME280;1913;50.660;7.834;2023-02-03T03:18:02;97981.09;;;6.23;100.00
3796;BME280;1913;50.660;7.834;2023-02-03T03:20:30;97977.13;;;6.19;100.00
3796;BME280;1913;50.660;7.834;2023-02-03T03:23:06;97989.75;;;6.23;100.00
3796;BME280;1913;50.660;7.834;2023-02-03T03:25:39;97997.72;;;6.22;100.00
3796;BME280;1913;50.660;7.834;2023-02-03T03:28:13;97998.53;;;6.22;100.00
3796;BME280;1913;50.660;7.834;2023-02-03T03:30:40;97975.72;;;6.24;100.00
3796;BME280;1913;50.660;7.834;2023-02-03T03:33:06;97965.28;;;6.24;100.00
3796;BME280;1913;50.660;7.834;2023-02-03T03:35:59;97950.53;;;6.15;100.00
3796;BME280;1913;50.660;7.834;2023-02-03T03:38:52;97952.03;;;6.18;100.00
3796;BME280;1913;50.660;7.834;2023-02-03T03:41:49;97945.00;;;6.18;100.00
3796;BME280;1913;50.660;7.834;2023-02-03T03:44:18;97949.78;;;6.23;100.00
3796;BME280;1913;50.660;7.834;2023-02-03T03:46:55;97953.22;;;6.23;100.00
3796;BME280;1913;50.660;7.834;2023-02-03T03:49:24;97954.50;;;6.19;100.00
3796;BME280;1913;50.660;7.834;2023-02-03T03:51:55;97958.56;;;6.22;100.00
3796;BME280;1913;50.660;7.834;2023-02-03T03:54:23;97966.59;;;6.29;100.00
3796;BME280;1913;50.660;7.834;2023-02-03T03:57:12;97959.56;;;6.29;100.00
3796;BME280;1913;50.660;7.834;2023-02-03T03:59:41;97964.16;;;6.27;100.00
3796;BME280;1913;50.660;7.834;2023-02-03T04:02:08;97967.59;;;6.36;100.00
3796;BME280;1913;50.660;7.834;2023-02-03T04:04:37;97970.22;;;6.36;100.00
3796;BME280;1913;50.660;7.834;2023-02-03T04:07:03;97964.03;;;6.37;100.00
3796;BME280;1913;50.660;7.834;2023-02-03T04:09:29;97971.53;;;6.40;100.00
3796;BME280;1913;50.660;7.834;2023-02-03T04:11:54;97978.84;;;6.36;100.00
3796;BME280;1913;50.660;7.834;2023-02-03T04:14:27;97984.59;;;6.40;100.00
3796;BME280;1913;50.660;7.834;2023-02-03T04:16:54;97969.09;;;6.38;100.00
3796;BME280;1913;50.660;7.834;2023-02-03T04:19:19;97957.16;;;6.36;100.00
3796;BME280;1913;50.660;7.834;2023-02-03T04:21:45;97950.00;;;6.38;100.00
3796;BME280;1913;50.660;7.834;2023-02-03T04:24:10;97954.59;;;6.44;100.00
3796;BME280;1913;50.660;7.834;2023-02-03T04:26:36;97955.72;;;6.41;100.00
3796;BME280;1913;50.660;7.834;2023-02-03T04:29:02;97975.50;;;6.44;100.00
3796;BME280;1913;50.660;7.834;2023-02-03T04:31:28;97956.88;;;6.47;100.00
3796;BME280;1913;50.660;7.834;2023-02-03T04:33:53;97952.00;;;6.44;100.00
3796;BME280;1913;50.660;7.834;2023-02-03T04:36:19;97953.13;;;6.41;100.00
3796;BME280;1913;50.660;7.834;2023-02-03T04:38:45;97948.72;;;6.42;100.00
3796;BME280;1913;50.660;7.834;2023-02-03T04:41:10;97950.19;;;6.44;100.00
3796;BME280;1913;50.660;7.834;2023-02-03T04:43:35;97958.03;;;6.44;100.00
3796;BME280;1913;50.660;7.834;2023-02-03T04:46:01;97941.69;;;6.42;100.00
3796;BME280;1913;50.660;7.834;2023-02-03T04:48:26;97949.53;;;6.42;100.00
3796;BME280;1913;50.660;7.834;2023-02-03T04:50:52;97952.03;;;6.52;100.00
3796;BME280;1913;50.660;7.834;2023-02-03T04:53:17;97949.88;;;6.47;100.00
3796;BME280;1913;50.660;7.834;2023-02-03T04:55:46;97943.00;;;6.46;100.00
3796;BME280;1913;50.660;7.834;2023-02-03T04:58:12;97931.28;;;6.51;100.00
3796;BME280;1913;50.660;7.834;2023-02-03T05:00:38;97935.38;;;6.53;100.00
3796;BME280;1913;50.660;7.834;2023-02-03T05:03:03;97932.22;;;6.41;100.00
3796;BME280;1913;50.660;7.834;2023-02-03T05:05:29;97949.72;;;6.49;100.00
3796;BME280;1913;50.660;7.834;2023-02-03T05:07:54;97935.38;;;6.53;100.00
3796;BME280;1913;50.660;7.834;2023-02-03T05:10:19;97948.44;;;6.53;100.00
3796;BME280;1913;50.660;7.834;2023-02-03T05:12:45;97939.59;;;6.54;100.00
3796;BME280;1913;50.660;7.834;2023-02-03T05:15:10;97944.00;;;6.54;100.00
3796;BME280;1913;50.660;7.834;2023-02-03T05:17:36;97931.13;;;6.52;100.00
3796;BME280;1913;50.660;7.834;2023-02-03T05:20:05;97938.47;;;6.48;100.00
3796;BME280;1913;50.660;7.834;2023-02-03T05:22:31;97945.31;;;6.58;100.00
3796;BME280;1913;50.660;7.834;2023-02-03T05:24:56;97951.06;;;6.61;100.00
3796;BME280;1913;50.660;7.834;2023-02-03T05:27:22;97948.59;;;6.52;100.00
3796;BME280;1913;50.660;7.834;2023-02-03T05:29:47;97934.06;;;6.49;100.00
3796;BME280;1913;50.660;7.834;2023-02-03T05:32:12;97938.47;;;6.48;100.00
3796;BME280;1913;50.660;7.834;2023-02-03T05:34:38;97947.72;;;6.43;100.00
3796;BME280;1913;50.660;7.834;2023-02-03T05:37:03;97935.53;;;6.52;100.00
3796;BME280;1913;50.660;7.834;2023-02-03T05:39:29;97946.94;;;6.51;100.00
3796;BME280;1913;50.660;7.834;2023-02-03T05:41:54;97934.72;;;6.51;100.00
3796;BME280;1913;50.660;7.834;2023-02-03T05:44:22;97943.06;;;6.55;100.00
3796;BME280;1913;50.660;7.834;2023-02-03T05:46:49;97942.88;;;6.48;100.00
3796;BME280;1913;50.660;7.834;2023-02-03T05:49:15;97947.44;;;6.54;100.00
3796;BME280;1913;50.660;7.834;2023-02-03T05:51:41;97940.91;;;6.50;100.00
3796;BME280;1913;50.660;7.834;2023-02-03T05:54:09;97938.59;;;6.47;100.00
3796;BME280;1913;50.660;7.834;2023-02-03T05:56:35;97940.44;;;6.55;100.00
3796;BME280;1913;50.660;7.834;2023-02-03T05:59:04;97945.66;;;6.55;100.00
3796;BME280;1913;50.660;7.834;2023-02-03T06:01:30;97948.13;;;6.56;100.00
3796;BME280;1913;50.660;7.834;2023-02-03T06:03:56;97937.00;;;6.54;100.00
3796;BME280;1913;50.660;7.834;2023-02-03T06:06:21;97929.50;;;6.51;100.00
3796;BME280;1913;50.660;7.834;2023-02-03T06:08:46;97939.59;;;6.54;100.00
3796;BME280;1913;50.660;7.834;2023-02-03T06:11:12;97937.47;;;6.50;100.00
3796;BME280;1913;50.660;7.834;2023-02-03T06:13:37;97935.03;;;6.48;100.00
3796;BME280;1913;50.660;7.834;2023-02-03T06:16:03;97929.97;;;6.46;100.00
3796;BME280;1913;50.660;7.834;2023-02-03T06:18:29;97919.19;;;6.41;100.00
3796;BME280;1913;50.660;7.834;2023-02-03T06:20:54;97935.06;;;6.56;100.00
3796;BME280;1913;50.660;7.834;2023-02-03T06:23:20;97929.34;;;6.61;100.00
3796;BME280;1913;50.660;7.834;2023-02-03T06:25:50;97923.63;;;6.57;100.00
3796;BME280;1913;50.660;7.834;2023-02-03T06:28:15;97922.16;;;6.55;100.00
3796;BME280;1913;50.660;7.834;2023-02-03T06:30:41;97931.50;;;6.65;100.00
3796;BME280;1913;50.660;7.834;2023-02-03T06:33:07;97946.00;;;6.60;100.00
3796;BME280;1913;50.660;7.834;2023-02-03T06:35:32;97953.34;;;6.64;100.00
3796;BME280;1913;50.660;7.834;2023-02-03T06:37:58;97939.78;;;6.53;100.00
3796;BME280;1913;50.660;7.834;2023-02-03T06:40:24;97934.56;;;6.53;100.00
3796;BME280;1913;50.660;7.834;2023-02-03T06:42:49;97932.47;;;6.64;100.00
3796;BME280;1913;50.660;7.834;2023-02-03T06:45:16;97941.41;;;6.54;100.00
3796;BME280;1913;50.660;7.834;2023-02-03T06:47:42;97946.50;;;6.55;100.00
3796;BME280;1913;50.660;7.834;2023-02-03T06:50:10;97953.03;;;6.59;100.00
3796;BME280;1913;50.660;7.834;2023-02-03T06:52:36;97951.22;;;6.60;100.00
3796;BME280;1913;50.660;7.834;2023-02-03T06:55:03;97953.53;;;6.63;100.00
3796;BME280;1913;50.660;7.834;2023-02-03T06:57:28;97943.22;;;6.61;100.00
3796;BME280;1913;50.660;7.834;2023-02-03T06:59:54;97944.38;;;6.59;100.00
3796;BME280;1913;50.660;7.834;2023-02-03T07:02:19;97929.22;;;6.62;100.00
3796;BME280;1913;50.660;7.834;2023-02-03T07:04:45;97929.72;;;6.66;100.00
3796;BME280;1913;50.660;7.834;2023-02-03T07:07:13;97929.84;;;6.64;100.00
3796;BME280;1913;50.660;7.834;2023-02-03T07:09:41;97940.97;;;6.75;100.00
3796;BME280;1913;50.660;7.834;2023-02-03T07:12:07;97937.53;;;6.66;100.00
3796;BME280;1913;50.660;7.834;2023-02-03T07:14:33;97953.41;;;6.72;100.00
3796;BME280;1913;50.660;7.834;2023-02-03T07:17:01;97954.03;;;6.75;100.00
3796;BME280;1913;50.660;7.834;2023-02-03T07:19:27;97941.28;;;6.71;100.00
3796;BME280;1913;50.660;7.834;2023-02-03T07:21:52;97961.06;;;6.74;100.00
3796;BME280;1913;50.660;7.834;2023-02-03T07:24:18;97955.34;;;6.79;100.00
3796;BME280;1913;50.660;7.834;2023-02-03T07:26:43;97956.84;;;6.81;100.00
3796;BME280;1913;50.660;7.834;2023-02-03T07:29:08;97957.31;;;6.77;100.00
3796;BME280;1913;50.660;7.834;2023-02-03T07:31:34;97964.69;;;6.89;100.00
3796;BME280;1913;50.660;7.834;2023-02-03T07:34:00;97955.22;;;6.80;100.00
3796;BME280;1913;50.660;7.834;2023-02-03T07:36:25;97959.28;;;6.83;100.00
3796;BME280;1913;50.660;7.834;2023-02-03T07:38:52;97958.66;;;6.89;100.00
3796;BME280;1913;50.660;7.834;2023-02-03T07:41:18;97958.47;;;6.82;100.00
3796;BME280;1913;50.660;7.834;2023-02-03T07:43:43;97959.78;;;6.86;100.00
3796;BME280;1913;50.660;7.834;2023-02-03T07:46:09;97960.94;;;6.84;100.00
3796;BME280;1913;50.660;7.834;2023-02-03T07:48:34;97960.78;;;6.93;100.00
3796;BME280;1913;50.660;7.834;2023-02-03T07:51:00;97969.28;;;6.95;100.00
3796;BME280;1913;50.660;7.834;2023-02-03T07:53:26;97963.88;;;6.89;100.00
3796;BME280;1913;50.660;7.834;2023-02-03T07:55:51;97964.84;;;6.88;100.00
3796;BME280;1913;50.660;7.834;2023-02-03T07:58:17;97956.03;;;6.89;100.00
3796;BME280;1913;50.660;7.834;2023-02-03T08:00:42;97954.22;;;6.89;100.00
3796;BME280;1913;50.660;7.834;2023-02-03T08:03:07;97959.97;;;6.93;100.00
3796;BME280;1913;50.660;7.834;2023-02-03T08:05:36;97962.13;;;6.98;100.00
3796;BME280;1913;50.660;7.834;2023-02-03T08:08:01;97966.03;;;7.02;100.00
3796;BME280;1913;50.660;7.834;2023-02-03T08:10:27;97954.59;;;6.94;100.00
3796;BME280;1913;50.660;7.834;2023-02-03T08:12:53;97968.97;;;7.07;100.00
3796;BME280;1913;50.660;7.834;2023-02-03T08:15:21;97961.63;;;7.02;100.00
3796;BME280;1913;50.660;7.834;2023-02-03T08:17:50;97968.47;;;7.03;100.00
3796;BME280;1913;50.660;7.834;2023-02-03T08:20:21;97970.09;;;7.04;100.00
3796;BME280;1913;50.660;7.834;2023-02-03T08:22:46;97967.03;;;7.09;100.00
3796;BME280;1913;50.660;7.834;2023-02-03T08:25:12;97939.22;;;7.08;100.00
3796;BME280;1913;50.660;7.834;2023-02-03T08:27:40;97953.78;;;7.10;100.00
3796;BME280;1913;50.660;7.834;2023-02-03T08:30:08;97959.81;;;7.11;100.00
3796;BME280;1913;50.660;7.834;2023-02-03T08:32:34;97948.56;;;7.18;100.00
3796;BME280;1913;50.660;7.834;2023-02-03T08:34:59;97954.28;;;7.14;100.00
3796;BME280;1913;50.660;7.834;2023-02-03T08:37:25;97953.28;;;7.15;100.00
3796;BME280;1913;50.660;7.834;2023-02-03T08:39:51;97954.44;;;7.12;100.00
3796;BME280;1913;50.660;7.834;2023-02-03T08:42:17;97956.91;;;7.14;100.00
3796;BME280;1913;50.660;7.834;2023-02-03T08:44:43;97978.31;;;7.17;100.00
3796;BME280;1913;50.660;7.834;2023-02-03T08:47:09;97966.84;;;7.10;100.00
3796;BME280;1913;50.660;7.834;2023-02-03T08:49:38;97981.72;;;7.10;100.00
3796;BME280;1913;50.660;7.834;2023-02-03T08:52:05;97978.28;;;7.09;100.00
3796;BME280;1913;50.660;7.834;2023-02-03T08:54:31;97993.63;;;7.04;100.00
3796;BME280;1913;50.660;7.834;2023-02-03T08:56:59;97992.50;;;7.15;100.00
3796;BME280;1913;50.660;7.834;2023-02-03T08:59:25;97995.59;;;7.10;100.00
3796;BME280;1913;50.660;7.834;2023-02-03T09:01:51;97996.91;;;7.06;100.00
3796;BME280;1913;50.660;7.834;2023-02-03T09:04:18;97976.66;;;7.08;100.00
3796;BME280;1913;50.660;7.834;2023-02-03T09:06:47;97974.69;;;7.02;100.00
3796;BME280;1913;50.660;7.834;2023-02-03T09:09:13;97978.25;;;6.93;100.00
3796;BME280;1913;50.660;7.834;2023-02-03T09:11:40;97986.88;;;6.85;100.00
3796;BME280;1913;50.660;7.834;2023-02-03T09:14:05;97985.25;;;6.76;100.00
3796;BME280;1913;50.660;7.834;2023-02-03T09:16:31;97977.91;;;6.80;100.00
3796;BME280;1913;50.660;7.834;2023-02-03T09:18:56;97981.47;;;6.70;100.00
3796;BME280;1913;50.660;7.834;2023-02-03T09:21:22;97979.44;;;6.56;100.00
3796;BME280;1913;50.660;7.834;2023-02-03T09:23:49;97975.81;;;6.49;100.00
3796;BME280;1913;50.660;7.834;2023-02-03T09:26:15;97978.28;;;6.51;100.00
3796;BME280;1913;50.660;7.834;2023-02-03T09:28:41;97983.50;;;6.51;100.00
3796;BME280;1913;50.660;7.834;2023-02-03T09:31:12;97978.56;;;6.39;100.00
3796;BME280;1913;50.660;7.834;2023-02-03T09:33:38;97986.94;;;6.51;100.00
3796;BME280;1913;50.660;7.834;2023-02-03T09:36:05;97973.50;;;6.38;100.00
3796;BME280;1913;50.660;7.834;2023-02-03T09:38:32;97972.81;;;6.36;100.00
3796;BME280;1913;50.660;7.834;2023-02-03T09:41:02;97970.06;;;6.37;100.00
3796;BME280;1913;50.660;7.834;2023-02-03T09:43:42;97981.84;;;6.41;100.00
3796;BME280;1913;50.660;7.834;2023-02-03T09:46:22;97974.13;;;6.32;100.00
3796;BME280;1913;50.660;7.834;2023-02-03T09:48:58;97974.16;;;6.40;100.00
3796;BME280;1913;50.660;7.834;2023-02-03T09:51:43;97971.41;;;6.41;100.00
3796;BME280;1913;50.660;7.834;2023-02-03T09:57:20;97965.47;;;6.31;100.00
3796;BME280;1913;50.660;7.834;2023-02-03T09:59:47;97971.41;;;6.15;100.00
3796;BME280;1913;50.660;7.834;2023-02-03T10:10:40;97979.66;;;6.29;100.00
3796;BME280;1913;50.660;7.834;2023-02-03T10:13:33;97990.09;;;6.29;100.00
3796;BME280;1913;50.660;7.834;2023-02-03T10:16:38;97984.41;;;6.33;100.00
3796;BME280;1913;50.660;7.834;2023-02-03T10:19:11;97991.06;;;6.28;100.00
3796;BME280;1913;50.660;7.834;2023-02-03T10:21:53;97979.19;;;6.33;100.00
3796;BME280;1913;50.660;7.834;2023-02-03T10:24:31;97981.47;;;6.36;100.00
3796;BME280;1913;50.660;7.834;2023-02-03T10:27:02;98002.53;;;6.35;100.00
3796;BME280;1913;50.660;7.834;2023-02-03T10:29:41;98005.13;;;6.35;100.00
3796;BME280;1913;50.660;7.834;2023-02-03T10:32:11;98008.56;;;6.35;100.00
3796;BME280;1913;50.660;7.834;2023-02-03T10:34:38;98012.97;;;6.35;100.00
3796;BME280;1913;50.660;7.834;2023-02-03T10:37:21;98010.00;;;6.30;100.00
3796;BME280;1913;50.660;7.834;2023-02-03T10:39:51;97993.69;;;6.28;100.00
3796;BME280;1913;50.660;7.834;2023-02-03T10:42:17;97992.75;;;6.37;100.00
3796;BME280;1913;50.660;7.834;2023-02-03T10:44:50;98002.53;;;6.35;100.00
3796;BME280;1913;50.660;7.834;2023-02-03T10:47:40;97982.31;;;6.37;100.00
3796;BME280;1913;50.660;7.834;2023-02-03T10:50:20;97983.56;;;6.33;100.00
3796;BME280;1913;50.660;7.834;2023-02-03T10:52:48;97980.38;;;6.47;100.00
3796;BME280;1913;50.660;7.834;2023-02-03T10:57:48;97977.13;;;6.45;100.00
3796;BME280;1913;50.660;7.834;2023-02-03T11:02:43;97971.09;;;6.44;100.00
3796;BME280;1913;50.660;7.834;2023-02-03T11:07:43;97963.44;;;6.51;100.00
3796;BME280;1913;50.660;7.834;2023-02-03T11:13:21;97976.50;;;6.51;100.00
3796;BME280;1913;50.660;7.834;2023-02-03T11:15:55;97976.84;;;6.56;100.00
3796;BME280;1913;50.660;7.834;2023-02-03T11:18:41;97975.53;;;6.60;100.00
3796;BME280;1913;50.660;7.834;2023-02-03T11:21:28;97970.50;;;6.59;100.00
3796;BME280;1913;50.660;7.834;2023-02-03T11:24:03;97973.91;;;6.59;100.00
3796;BME280;1913;50.660;7.834;2023-02-03T11:26:38;97972.94;;;6.60;100.00
3796;BME280;1913;50.660;7.834;2023-02-03T11:29:05;97971.63;;;6.64;100.00
3796;BME280;1913;50.660;7.834;2023-02-03T11:31:34;97960.38;;;6.64;100.00
3796;BME280;1913;50.660;7.834;2023-02-03T11:34:03;97962.84;;;6.65;100.00
3796;BME280;1913;50.660;7.834;2023-02-03T11:36:32;97957.94;;;6.62;100.00
3796;BME280;1913;50.660;7.834;2023-02-03T11:39:16;97949.31;;;6.70;100.00
3796;BME280;1913;50.660;7.834;2023-02-03T11:41:44;97947.00;;;6.75;100.00
3796;BME280;1913;50.660;7.834;2023-02-03T11:44:16;97938.84;;;6.70;100.00
3796;BME280;1913;50.660;7.834;2023-02-03T11:46:43;97940.16;;;6.74;100.00
3796;BME280;1913;50.660;7.834;2023-02-03T11:52:05;97917.31;;;6.76;100.00
3796;BME280;1913;50.660;7.834;2023-02-03T12:13:49;97939.06;;;6.93;100.00
3796;BME280;1913;50.660;7.834;2023-02-03T12:16:44;97940.53;;;6.87;100.00
3796;BME280;1913;50.660;7.834;2023-02-03T12:30:19;97931.72;;;6.88;100.00
3796;BME280;1913;50.660;7.834;2023-02-03T12:33:15;97955.09;;;6.98;100.00
3796;BME280;1913;50.660;7.834;2023-02-03T12:35:50;97933.81;;;6.93;100.00
3796;BME280;1913;50.660;7.834;2023-02-03T12:38:45;97930.41;;;6.92;100.00
3796;BME280;1913;50.660;7.834;2023-02-03T12:41:17;97935.47;;;6.94;100.00
3796;BME280;1913;50.660;7.834;2023-02-03T12:43:46;97923.88;;;6.96;100.00
3796;BME280;1913;50.660;7.834;2023-02-03T12:46:29;97926.16;;;6.91;100.00
3796;BME280;1913;50.660;7.834;2023-02-03T12:51:44;97915.84;;;6.90;100.00
3796;BME280;1913;50.660;7.834;2023-02-03T12:57:11;97925.97;;;6.85;100.00
3796;BME280;1913;50.660;7.834;2023-02-03T12:59:38;97932.88;;;7.02;100.00
3796;BME280;1913;50.660;7.834;2023-02-03T13:02:26;97916.69;;;6.99;100.00
3796;BME280;1913;50.660;7.834;2023-02-03T13:05:02;97924.38;;;6.92;100.00
3796;BME280;1913;50.660;7.834;2023-02-03T13:07:40;97907.06;;;6.91;100.00
3796;BME280;1913;50.660;7.834;2023-02-03T13:10:28;97922.56;;;6.92;100.00
3796;BME280;1913;50.660;7.834;2023-02-03T13:12:57;97933.38;;;6.98;100.00
3796;BME280;1913;50.660;7.834;2023-02-03T13:15:29;97946.75;;;6.94;100.00
3796;BME280;1913;50.660;7.834;2023-02-03T13:20:35;97929.09;;;6.88;100.00
3796;BME280;1913;50.660;7.834;2023-02-03T13:23:06;97931.56;;;6.98;100.00
3796;BME280;1913;50.660;7.834;2023-02-03T13:42:20;97910.13;;;6.86;100.00
3796;BME280;1913;50.660;7.834;2023-02-03T13:44:51;97927.28;;;6.97;100.00
3796;BME280;1913;50.660;7.834;2023-02-03T13:47:23;97912.28;;;6.91;100.00
3796;BME280;1913;50.660;7.834;2023-02-03T13:49:55;97918.66;;;6.96;100.00
3796;BME280;1913;50.660;7.834;2023-02-03T13:53:03;97913.91;;;6.92;100.00
3796;BME280;1913;50.660;7.834;2023-02-03T13:55:37;97922.41;;;6.94;100.00
3796;BME280;1913;50.660;7.834;2023-02-03T13:58:05;97936.94;;;6.96;100.00
3796;BME280;1913;50.660;7.834;2023-02-03T14:05:48;97926.34;;;6.98;100.00
3796;BME280;1913;50.660;7.834;2023-02-03T14:13:54;97922.59;;;7.09;100.00
3796;BME280;1913;50.660;7.834;2023-02-03T14:16:24;97918.31;;;7.00;100.00
3796;BME280;1913;50.660;7.834;2023-02-03T14:18:50;97917.34;;;7.01;100.00
3796;BME280;1913;50.660;7.834;2023-02-03T14:21:21;97918.69;;;7.05;100.00
3796;BME280;1913;50.660;7.834;2023-02-03T14:24:08;97912.13;;;7.01;100.00
3796;BME280;1913;50.660;7.834;2023-02-03T14:26:43;97912.59;;;6.96;100.00
3796;BME280;1913;50.660;7.834;2023-02-03T14:29:29;97913.59;;;7.03;100.00
3796;BME280;1913;50.660;7.834;2023-02-03T14:32:09;97939.91;;;7.02;100.00
3796;BME280;1913;50.660;7.834;2023-02-03T14:34:48;97950.81;;;6.97;100.00
3796;BME280;1913;50.660;7.834;2023-02-03T14:50:58;97940.22;;;6.99;100.00
3796;BME280;1913;50.660;7.834;2023-02-03T14:58:52;97936.78;;;7.06;100.00
3796;BME280;1913;50.660;7.834;2023-02-03T15:06:44;97936.97;;;7.05;100.00
3796;BME280;1913;50.660;7.834;2023-02-03T15:11:49;97946.75;;;7.03;100.00
3796;BME280;1913;50.660;7.834;2023-02-03T15:14:33;97964.25;;;7.10;100.00
3796;BME280;1913;50.660;7.834;2023-02-03T15:17:09;97947.75;;;7.02;100.00
3796;BME280;1913;50.660;7.834;2023-02-03T15:19:39;97975.81;;;7.08;100.00
3796;BME280;1913;50.660;7.834;2023-02-03T15:22:25;97972.72;;;7.04;100.00
3796;BME280;1913;50.660;7.834;2023-02-03T15:24:55;97965.53;;;7.06;100.00
3796;BME280;1913;50.660;7.834;2023-02-03T15:27:23;97984.19;;;7.19;100.00
3796;BME280;1913;50.660;7.834;2023-02-03T15:29:50;97972.25;;;7.09;100.00
3796;BME280;1913;50.660;7.834;2023-02-03T15:34:47;97983.03;;;7.14;100.00
3796;BME280;1913;50.660;7.834;2023-02-03T15:37:17;97979.09;;;7.10;100.00
3796;BME280;1913;50.660;7.834;2023-02-03T15:40:06;97986.28;;;7.08;100.00
3796;BME280;1913;50.660;7.834;2023-02-03T15:48:00;97982.03;;;7.15;100.00
3796;BME280;1913;50.660;7.834;2023-02-03T15:50:31;97963.91;;;7.13;100.00
3796;BME280;1913;50.660;7.834;2023-02-03T15:53:09;97985.81;;;7.12;100.00
3796;BME280;1913;50.660;7.834;2023-02-03T15:55:45;97989.25;;;7.13;100.00
3796;BME280;1913;50.660;7.834;2023-02-03T15:58:24;97989.38;;;7.11;100.00
3796;BME280;1913;50.660;7.834;2023-02-03T16:00:52;97987.94;;;7.09;100.00
3796;BME280;1913;50.660;7.834;2023-02-03T16:03:49;97980.56;;;7.04;100.00
3796;BME280;1913;50.660;7.834;2023-02-03T16:06:33;97981.91;;;7.08;100.00